createdAt,value
2022-09-22T00:01:52.199Z,2.25
2022-09-22T00:06:57.364Z,1.75
2022-09-22T00:12:00.079Z,2.00
2022-09-22T00:17:03.605Z,2.00
2022-09-22T00:22:07.881Z,2.00
2022-09-22T00:27:10.627Z,2.00
2022-09-22T00:32:13.513Z,2.00
2022-09-22T00:37:17.490Z,2.00
2022-09-22T00:42:20.832Z,1.50
2022-09-22T00:47:34.925Z,2.00
2022-09-22T00:52:44.295Z,1.75
2022-09-22T00:57:49.266Z,1.25
2022-09-22T01:02:57.048Z,2.00
2022-09-22T01:08:01.710Z,2.00
2022-09-22T01:13:18.884Z,2.00
2022-09-22T01:18:31.206Z,2.00
2022-09-22T01:24:15.108Z,2.00
2022-09-22T01:29:44.634Z,1.75
2022-09-22T01:34:56.250Z,1.00
2022-09-22T01:40:05.627Z,2.00
2022-09-22T01:45:12.198Z,2.00
2022-09-22T01:50:23.177Z,1.00
2022-09-22T01:55:29.428Z,2.00
2022-09-22T02:00:32.816Z,2.00
2022-09-22T02:05:40.522Z,2.75
2022-09-22T02:10:47.926Z,2.00
2022-09-22T02:16:02.558Z,2.00
2022-09-22T02:21:07.030Z,1.00
2022-09-22T02:26:11.266Z,2.00
2022-09-22T02:31:20.808Z,2.00
2022-09-22T02:36:42.950Z,2.00
2022-09-22T02:42:01.596Z,2.00
2022-09-22T02:47:10.627Z,2.00
2022-09-22T02:52:15.861Z,1.00
2022-09-22T02:57:18.513Z,2.00
2022-09-22T03:02:21.121Z,2.00
2022-09-22T03:07:25.196Z,1.00
2022-09-22T03:12:27.843Z,2.00
2022-09-22T03:17:32.071Z,1.50
2022-09-22T03:22:36.147Z,1.00
2022-09-22T03:27:39.602Z,2.00
2022-09-22T03:32:42.241Z,1.75
2022-09-22T03:37:46.752Z,1.00
2022-09-22T03:42:49.477Z,2.00
2022-09-22T03:47:54.280Z,2.00
2022-09-22T03:52:59.409Z,1.00
2022-09-22T03:58:01.996Z,2.25
2022-09-22T04:03:04.845Z,1.50
2022-09-22T04:08:08.777Z,1.75
2022-09-22T04:13:11.668Z,1.50
2022-09-22T04:18:15.849Z,1.00
2022-09-22T04:23:19.721Z,1.50
2022-09-22T04:28:22.784Z,2.00
2022-09-22T04:33:26.307Z,1.50
2022-09-22T04:38:30.214Z,1.25
2022-09-22T04:43:32.874Z,1.00
2022-09-22T04:48:35.525Z,2.00
2022-09-22T04:53:39.506Z,2.00
2022-09-22T04:58:42.056Z,2.00
2022-09-22T05:03:44.653Z,2.00
2022-09-22T05:08:48.646Z,1.00
2022-09-22T05:13:51.975Z,1.75
2022-09-22T05:18:54.660Z,1.00
2022-09-22T05:23:58.682Z,2.00
2022-09-22T05:29:01.231Z,1.00
2022-09-22T05:34:05.349Z,2.00
2022-09-22T05:39:09.517Z,1.00
2022-09-22T05:44:12.217Z,1.50
2022-09-22T05:49:14.881Z,1.25
2022-09-22T05:54:23.125Z,1.00
2022-09-22T05:59:26.035Z,1.25
2022-09-22T06:04:28.648Z,1.25
2022-09-22T06:09:32.660Z,1.75
2022-09-22T06:14:35.532Z,1.75
2022-09-22T06:19:38.536Z,1.00
2022-09-22T06:24:42.668Z,1.00
2022-09-22T06:29:45.355Z,2.00
2022-09-22T06:34:48.138Z,1.75
2022-09-22T06:39:52.076Z,1.00
2022-09-22T06:44:55.179Z,1.00
2022-09-22T06:49:57.778Z,1.00
2022-09-22T06:55:01.690Z,0.50
2022-09-22T07:00:04.993Z,1.00
2022-09-22T07:05:08.190Z,11.75
2022-09-22T07:10:12.253Z,12.75
2022-09-22T07:15:14.880Z,11.50
2022-09-22T07:20:17.735Z,5.00
2022-09-22T07:25:21.670Z,5.00
2022-09-22T07:30:26.152Z,4.00
2022-09-22T07:35:29.270Z,4.50
2022-09-22T07:40:33.598Z,4.00
2022-09-22T07:45:36.168Z,2.75
2022-09-22T07:50:38.756Z,3.00
2022-09-22T07:55:42.644Z,3.00
2022-09-22T08:00:45.350Z,4.50
2022-09-22T08:05:53.352Z,3.50
2022-09-22T08:11:04.754Z,3.25
2022-09-22T08:16:07.819Z,4.00
2022-09-22T08:21:10.746Z,3.25
2022-09-22T08:26:14.675Z,3.00
2022-09-22T08:31:20.155Z,4.00
2022-09-22T08:36:24.187Z,3.25
2022-09-22T08:41:38.989Z,3.00
2022-09-22T08:46:44.416Z,3.00
2022-09-22T08:51:53.864Z,4.00
2022-09-22T08:57:12.570Z,3.25
2022-09-22T09:02:38.185Z,4.00
2022-09-22T09:07:49.359Z,2.50
2022-09-22T09:13:14.674Z,3.00
2022-09-22T09:18:22.278Z,4.75
2022-09-22T09:25:22.108Z,3.00
2022-09-22T09:29:03.501Z,2.67
2022-09-22T09:34:14.612Z,2.50
2022-09-22T09:39:21.463Z,3.75
2022-09-22T09:44:30.253Z,4.00
2022-09-22T09:49:33.137Z,3.00
2022-09-22T09:54:37.528Z,2.00
2022-09-22T10:00:01.033Z,4.50
2022-09-22T10:05:07.466Z,3.00
2022-09-22T10:10:35.431Z,2.00
2022-09-22T10:15:41.330Z,2.50
2022-09-22T10:20:43.993Z,2.00
2022-09-22T10:25:46.950Z,2.00
2022-09-22T10:30:59.019Z,5.50
2022-09-22T10:36:11.000Z,5.00
2022-09-22T10:41:17.913Z,3.00
2022-09-22T10:46:52.512Z,3.00
2022-09-22T10:52:08.379Z,2.00
2022-09-22T10:57:31.368Z,2.00
2022-09-22T11:02:57.116Z,2.00
2022-09-22T11:08:25.299Z,1.00
2022-09-22T11:13:40.097Z,2.00
2022-09-22T11:19:09.811Z,2.00
2022-09-22T11:24:29.069Z,1.75
2022-09-22T11:30:11.091Z,1.25
2022-09-22T11:35:28.869Z,1.00
2022-09-22T11:41:02.197Z,2.00
2022-09-22T11:46:09.486Z,2.00
2022-09-22T11:51:31.520Z,3.00
2022-09-22T11:56:41.127Z,2.00
2022-09-22T12:01:45.983Z,1.00
2022-09-22T12:06:56.754Z,0.75
2022-09-22T12:12:02.297Z,1.00
2022-09-22T12:17:11.299Z,0.00
2022-09-22T12:22:24.670Z,0.00
2022-09-22T12:27:29.672Z,1.00
2022-09-22T12:32:37.590Z,0.00
2022-09-22T12:37:41.583Z,1.00
2022-09-22T12:42:51.086Z,0.00
2022-09-22T12:47:56.394Z,0.50
2022-09-22T12:53:06.612Z,0.00
2022-09-22T12:58:41.208Z,0.00
2022-09-22T13:03:50.079Z,0.75
2022-09-22T13:09:24.137Z,1.00
2022-09-22T13:15:03.452Z,0.00
2022-09-22T13:20:16.245Z,0.50
2022-09-22T13:25:28.798Z,0.00
2022-09-22T13:30:32.217Z,0.00
2022-09-22T13:35:38.291Z,0.00
2022-09-22T13:40:48.869Z,0.50
2022-09-22T13:45:52.570Z,0.75
2022-09-22T13:50:58.335Z,0.00
2022-09-22T13:56:03.005Z,0.00
2022-09-22T14:01:15.041Z,0.50
2022-09-22T14:06:21.107Z,0.00
2022-09-22T14:11:28.220Z,0.25
2022-09-22T14:16:35.671Z,0.00
2022-09-22T14:21:45.406Z,0.25
2022-09-22T14:26:51.967Z,0.25
2022-09-22T14:32:00.319Z,0.00
2022-09-22T14:37:16.067Z,0.00
2022-09-22T14:42:25.662Z,0.00
2022-09-22T14:47:32.342Z,0.25
2022-09-22T14:52:39.295Z,1.00
2022-09-22T14:57:48.113Z,1.00
2022-09-22T15:02:55.590Z,0.00
2022-09-22T15:07:59.403Z,0.00
2022-09-22T15:13:28.052Z,0.00
2022-09-22T15:18:31.253Z,0.00
2022-09-22T15:23:41.677Z,0.00
2022-09-22T15:28:48.353Z,0.00
2022-09-22T15:33:50.948Z,0.00
2022-09-22T15:38:59.249Z,0.00
2022-09-22T15:44:03.956Z,0.00
2022-09-22T15:49:12.348Z,0.00
2022-09-22T15:54:16.518Z,0.00
2022-09-22T15:59:22.736Z,1.00
2022-09-22T16:04:27.373Z,2.75
2022-09-22T16:09:30.120Z,8.75
2022-09-22T16:14:34.442Z,15.60
2022-09-22T16:19:37.058Z,14.00
2022-09-22T16:24:39.605Z,7.00
2022-09-22T16:29:44.093Z,1.00
2022-09-22T16:34:46.843Z,0.25
2022-09-22T16:39:49.721Z,0.75
2022-09-22T16:44:53.723Z,2.00
2022-09-22T16:49:56.388Z,1.25
2022-09-22T16:54:59.683Z,1.00
2022-09-22T17:00:04.444Z,2.00
2022-09-22T17:05:07.389Z,1.00
2022-09-22T17:10:10.828Z,2.00
2022-09-22T17:15:16.249Z,2.00
2022-09-22T17:20:18.841Z,1.75
2022-09-22T17:25:21.631Z,2.00
2022-09-22T17:30:26.229Z,2.00
2022-09-22T17:35:28.979Z,2.00
2022-09-22T17:40:59.321Z,2.00
2022-09-22T17:46:03.624Z,2.75
2022-09-22T17:51:24.596Z,2.00
2022-09-22T17:56:29.142Z,2.00
2022-09-22T18:01:33.742Z,2.00
2022-09-22T18:06:36.321Z,1.00
2022-09-22T18:11:42.909Z,2.25
2022-09-22T18:16:48.022Z,2.00
2022-09-22T18:21:50.726Z,2.25
2022-09-22T18:26:53.625Z,4.00
2022-09-22T18:31:58.957Z,2.00
2022-09-22T18:37:03.240Z,2.00
2022-09-22T18:42:11.024Z,2.25
2022-09-22T18:47:18.408Z,2.00
2022-09-22T18:52:24.843Z,3.00
2022-09-22T18:57:28.602Z,2.00
2022-09-22T19:02:32.753Z,2.50
2022-09-22T19:07:43.926Z,2.25
2022-09-22T19:12:47.168Z,3.75
2022-09-22T19:17:51.534Z,2.00
2022-09-22T19:22:54.300Z,3.25
2022-09-22T19:27:57.286Z,4.00
2022-09-22T19:33:02.354Z,2.50
2022-09-22T19:38:06.419Z,5.50
2022-09-22T19:43:09.111Z,5.50
2022-09-22T19:48:14.257Z,5.75
2022-09-22T19:53:17.229Z,6.00
2022-09-22T19:58:19.802Z,7.00
2022-09-22T20:03:23.846Z,9.75
2022-09-22T20:08:27.167Z,9.00
2022-09-22T20:13:47.588Z,9.00
2022-09-22T20:18:51.486Z,8.25
2022-09-22T20:23:54.388Z,9.75
2022-09-22T20:28:57.833Z,10.00
2022-09-22T20:34:02.023Z,10.50
2022-09-22T20:39:05.340Z,9.75
2022-09-22T20:44:12.981Z,10.50
2022-09-22T20:49:19.415Z,10.50
2022-09-22T20:54:24.244Z,9.25
2022-09-22T20:59:28.703Z,10.50
2022-09-22T21:04:32.718Z,10.00
2022-09-22T21:09:53.164Z,9.00
2022-09-22T21:14:57.278Z,10.50
2022-09-22T21:20:01.998Z,9.75
2022-09-22T21:25:05.207Z,9.25
2022-09-22T21:30:09.163Z,8.50
2022-09-22T21:35:16.530Z,9.25
2022-09-22T21:40:20.091Z,9.50
2022-09-22T21:45:22.828Z,9.00
2022-09-22T21:50:28.158Z,10.75
2022-09-22T21:55:31.232Z,7.00
2022-09-22T22:00:51.261Z,8.00
2022-09-22T22:06:06.235Z,10.00
2022-09-22T22:11:10.627Z,8.25
2022-09-22T22:16:14.687Z,8.00
2022-09-22T22:21:21.283Z,8.00
2022-09-22T22:26:28.768Z,8.00
2022-09-22T22:31:31.317Z,7.00
2022-09-22T22:36:35.255Z,8.00
2022-09-22T22:41:38.770Z,9.00
2022-09-22T22:46:41.365Z,8.00
2022-09-22T22:51:45.449Z,9.00
2022-09-22T22:56:51.209Z,6.75
2022-09-22T23:01:54.233Z,7.00
2022-09-22T23:06:58.157Z,7.50
2022-09-22T23:12:00.730Z,7.50
2022-09-22T23:17:03.386Z,6.00
2022-09-22T23:22:07.475Z,7.50
2022-09-22T23:27:13.107Z,8.25
2022-09-22T23:32:15.744Z,6.00
2022-09-22T23:37:19.752Z,7.75
2022-09-22T23:42:22.469Z,8.00
2022-09-22T23:47:25.064Z,7.00
2022-09-22T23:52:29.064Z,7.25
2022-09-22T23:57:31.617Z,7.25
